Time;durP1;ratioP1;P1;durP2;ratioP2;P2;SDS_P1;SDS_P2;PMS_P1;PMS_P2;Temp;Humidity;BMP_temperature;BMP_pressure;BME280_temperature;BME280_humidity;BME280_pressure;Samples;Min_cycle;Max_cycle;Signal;HPM_P1;HPM_P2
2021/07/17 00:02:00;;;;;;;16.20;11.40;;;18.40;99.90;;;;;;5044382;28;20691;-68
2021/07/17 00:04:27;;;;;;;18.83;11.10;;;18.40;99.90;;;;;;5052863;28;20184;-68
2021/07/17 00:06:52;;;;;;;16.33;11.10;;;18.40;99.90;;;;;;5052844;28;20391;-68
2021/07/17 00:09:18;;;;;;;13.00;9.73;;;18.30;99.90;;;;;;5052765;28;20388;-68
2021/07/17 00:11:44;;;;;;;16.43;10.90;;;18.40;99.90;;;;;;5052864;28;20168;-68
2021/07/17 00:14:10;;;;;;;16.83;12.30;;;18.30;99.90;;;;;;5052868;28;20236;-68
2021/07/17 00:16:35;;;;;;;23.20;11.37;;;18.30;99.90;;;;;;5052700;28;20522;-68
2021/07/17 00:19:02;;;;;;;23.00;12.70;;;18.30;99.90;;;;;;5033589;28;20180;-68
2021/07/17 00:21:27;;;;;;;18.23;11.77;;;18.30;99.90;;;;;;5032844;28;20166;-68
2021/07/17 00:23:53;;;;;;;19.00;12.20;;;18.30;99.90;;;;;;5032725;28;20804;-68
2021/07/17 00:26:19;;;;;;;20.20;13.27;;;18.30;99.90;;;;;;5038294;28;20190;-68
2021/07/17 00:28:44;;;;;;;23.43;13.97;;;18.40;99.90;;;;;;5052848;28;20624;-68
2021/07/17 00:31:10;;;;;;;21.63;12.00;;;18.40;99.90;;;;;;5052489;28;20470;-68
2021/07/17 00:33:36;;;;;;;20.27;12.40;;;18.30;99.90;;;;;;5033310;28;20276;-68
2021/07/17 00:36:02;;;;;;;21.10;11.87;;;18.30;99.90;;;;;;5033356;28;20175;-68
2021/07/17 00:38:28;;;;;;;21.70;13.63;;;18.30;99.90;;;;;;5032550;28;20402;-68
2021/07/17 00:40:53;;;;;;;17.30;11.70;;;18.30;99.90;;;;;;5032342;28;20149;-68
2021/07/17 00:43:19;;;;;;;18.27;12.80;;;18.30;99.90;;;;;;5032379;28;20298;-68
2021/07/17 00:45:44;;;;;;;23.23;11.73;;;18.30;99.90;;;;;;5032171;28;20242;-68
2021/07/17 00:48:10;;;;;;;27.13;13.47;;;18.30;99.90;;;;;;5032675;28;20165;-68
2021/07/17 00:50:36;;;;;;;20.10;11.97;;;18.30;99.90;;;;;;5032395;28;20150;-68
2021/07/17 00:53:02;;;;;;;14.40;11.37;;;18.30;99.90;;;;;;5050662;28;20168;-68
2021/07/17 00:55:28;;;;;;;16.40;12.50;;;18.30;99.90;;;;;;5052231;28;20231;-68
2021/07/17 00:57:55;;;;;;;20.73;12.20;;;18.30;99.90;;;;;;5052344;28;20401;-68
2021/07/17 01:00:21;;;;;;;16.87;11.70;;;18.30;99.90;;;;;;5046008;28;20580;-68
2021/07/17 01:02:51;;;;;;;26.00;13.03;;;18.30;99.90;;;;;;5032099;28;20419;-68
2021/07/17 01:05:17;;;;;;;16.77;11.80;;;18.30;99.90;;;;;;5032138;28;20492;-68
2021/07/17 01:07:45;;;;;;;21.00;13.23;;;18.30;99.90;;;;;;5032865;28;20410;-68
2021/07/17 01:10:11;;;;;;;16.77;11.90;;;18.20;99.90;;;;;;5051463;28;20702;-68
2021/07/17 01:12:37;;;;;;;21.83;11.77;;;18.20;99.90;;;;;;5052273;28;20393;-68
2021/07/17 01:15:04;;;;;;;17.90;12.20;;;18.20;99.90;;;;;;5052157;28;20578;-68
2021/07/17 01:17:29;;;;;;;19.17;13.60;;;18.20;99.90;;;;;;5052044;28;20248;-68
2021/07/17 01:19:55;;;;;;;21.00;13.70;;;18.20;99.90;;;;;;5052149;28;20486;-68
2021/07/17 01:22:20;;;;;;;19.73;12.60;;;18.20;99.90;;;;;;5052047;28;20243;-69
2021/07/17 01:24:47;;;;;;;21.77;11.93;;;18.20;99.90;;;;;;5050851;28;20653;-68
2021/07/17 01:27:16;;;;;;;20.73;13.20;;;18.20;99.90;;;;;;5038229;28;20177;-68
2021/07/17 01:29:42;;;;;;;24.00;12.50;;;18.20;99.90;;;;;;5031978;28;20423;-68
2021/07/17 01:32:08;;;;;;;20.30;14.20;;;18.20;99.90;;;;;;5038071;28;20505;-68
2021/07/17 01:34:34;;;;;;;20.90;12.50;;;18.20;99.90;;;;;;5052020;28;20477;-68
2021/07/17 01:37:00;;;;;;;15.27;11.90;;;18.10;99.90;;;;;;5051814;28;20170;-68
2021/07/17 01:39:26;;;;;;;18.47;12.17;;;18.10;99.90;;;;;;5051903;28;20830;-68
2021/07/17 01:41:51;;;;;;;14.97;13.03;;;18.10;99.90;;;;;;5050790;28;20621;-68
2021/07/17 01:44:17;;;;;;;23.63;12.90;;;18.10;99.90;;;;;;5031820;28;20208;-68
2021/07/17 01:46:43;;;;;;;18.83;13.20;;;18.10;99.90;;;;;;5031946;28;20155;-68
2021/07/17 01:49:08;;;;;;;21.43;13.00;;;18.10;99.90;;;;;;5031928;28;20159;-68
2021/07/17 01:51:34;;;;;;;20.03;13.50;;;18.10;99.90;;;;;;5032671;28;20765;-68
2021/07/17 01:54:00;;;;;;;22.40;13.00;;;18.10;99.90;;;;;;5035478;28;20167;-68
2021/07/17 01:56:27;;;;;;;21.23;14.07;;;18.10;99.90;;;;;;5035330;28;20185;-68
2021/07/17 01:58:54;;;;;;;17.20;13.90;;;18.10;99.90;;;;;;5036297;28;20526;-68
2021/07/17 02:01:23;;;;;;;24.20;14.50;;;18.10;99.90;;;;;;5048622;28;20414;-68
2021/07/17 02:03:50;;;;;;;27.03;14.80;;;18.10;99.90;;;;;;5055220;28;20421;-68
2021/07/17 02:06:23;;;;;;;19.27;13.20;;;18.10;99.90;;;;;;5055199;28;20390;-68
2021/07/17 02:08:48;;;;;;;25.87;15.37;;;18.10;99.90;;;;;;5054973;28;20391;-68
2021/07/17 02:11:14;;;;;;;22.97;14.37;;;18.00;99.90;;;;;;5055311;28;20417;-68
2021/07/17 02:13:40;;;;;;;21.40;14.20;;;18.10;99.90;;;;;;5055066;28;20241;-68
2021/07/17 02:16:06;;;;;;;22.70;14.60;;;18.00;99.90;;;;;;5051837;28;20210;-68
2021/07/17 02:18:34;;;;;;;24.80;15.37;;;18.00;99.90;;;;;;5035329;28;20392;-68
2021/07/17 02:21:01;;;;;;;25.70;14.87;;;18.00;99.90;;;;;;5034809;28;20226;-68
2021/07/17 02:23:27;;;;;;;28.50;14.80;;;18.00;99.90;;;;;;5035036;28;20391;-68
2021/07/17 02:25:53;;;;;;;24.20;14.57;;;18.00;99.90;;;;;;5045469;28;20500;-68
2021/07/17 02:28:20;;;;;;;21.57;14.37;;;18.00;99.90;;;;;;5055064;28;20774;-68
2021/07/17 02:30:46;;;;;;;24.47;14.30;;;17.90;99.90;;;;;;5054365;28;20158;-68
2021/07/17 02:33:13;;;;;;;21.93;14.80;;;18.00;99.90;;;;;;5038335;28;20422;-68
2021/07/17 02:35:38;;;;;;;22.13;14.50;;;18.00;99.90;;;;;;5055045;28;20398;-69
2021/07/17 02:38:04;;;;;;;25.63;12.50;;;18.00;99.90;;;;;;5055013;28;20402;-68
2021/07/17 02:40:30;;;;;;;21.23;14.23;;;18.00;99.90;;;;;;5054711;28;20206;-68
2021/07/17 02:42:55;;;;;;;26.13;14.93;;;18.00;99.90;;;;;;5054720;28;20163;-68
2021/07/17 02:45:21;;;;;;;24.70;13.87;;;18.00;99.90;;;;;;5054305;28;20568;-68
2021/07/17 02:47:47;;;;;;;24.13;14.60;;;17.90;99.90;;;;;;5054399;28;20159;-68
2021/07/17 02:50:13;;;;;;;26.47;15.63;;;18.00;99.90;;;;;;5052761;28;20168;-68
2021/07/17 02:52:38;;;;;;;22.67;14.10;;;18.00;99.90;;;;;;5054271;28;20391;-68
2021/07/17 02:55:05;;;;;;;26.53;14.57;;;17.90;99.90;;;;;;5054357;28;20398;-68
2021/07/17 02:57:31;;;;;;;24.97;13.97;;;17.90;99.90;;;;;;5054277;28;20705;-68
2021/07/17 02:59:57;;;;;;;23.10;15.07;;;17.90;99.90;;;;;;5042975;28;20768;-68
2021/07/17 03:02:23;;;;;;;19.70;13.60;;;17.90;99.90;;;;;;5034135;28;20416;-68
2021/07/17 03:04:48;;;;;;;23.37;15.77;;;17.90;99.90;;;;;;5034095;28;20184;-68
2021/07/17 03:07:14;;;;;;;19.53;14.17;;;17.90;99.90;;;;;;5035067;28;20182;-68
2021/07/17 03:09:40;;;;;;;22.77;14.80;;;17.90;99.90;;;;;;5034113;28;20159;-68
2021/07/17 03:12:06;;;;;;;24.97;13.00;;;17.80;99.90;;;;;;5034317;28;20615;-68
2021/07/17 03:14:32;;;;;;;22.47;13.63;;;17.80;99.90;;;;;;5033992;28;20400;-68
2021/07/17 03:16:58;;;;;;;20.97;14.30;;;17.80;99.90;;;;;;5033910;28;20761;-68
2021/07/17 03:19:23;;;;;;;20.27;13.90;;;17.80;99.90;;;;;;5034031;28;20404;-68
2021/07/17 03:21:49;;;;;;;24.93;14.27;;;17.80;99.90;;;;;;5033867;28;20168;-68
2021/07/17 03:24:15;;;;;;;24.30;13.97;;;17.80;99.90;;;;;;5038045;28;20674;-68
2021/07/17 03:26:40;;;;;;;27.60;14.30;;;17.80;99.90;;;;;;5036273;28;20415;-68
2021/07/17 03:29:06;;;;;;;21.60;13.33;;;17.80;99.90;;;;;;5033943;28;20161;-68
2021/07/17 03:31:33;;;;;;;28.57;17.03;;;17.80;99.90;;;;;;5041669;28;20168;-68
2021/07/17 03:34:00;;;;;;;19.50;14.27;;;17.70;99.90;;;;;;5053507;28;20635;-68
2021/07/17 03:36:26;;;;;;;23.70;14.07;;;17.70;99.90;;;;;;5053759;28;20890;-68
2021/07/17 03:38:52;;;;;;;24.47;15.43;;;17.70;99.90;;;;;;5053496;28;20395;-68
2021/07/17 03:41:18;;;;;;;22.97;14.27;;;17.70;99.90;;;;;;5048612;28;20520;-68
2021/07/17 03:43:45;;;;;;;20.83;13.93;;;17.80;99.90;;;;;;5033100;28;20588;-68
2021/07/17 03:46:11;;;;;;;22.30;14.63;;;17.80;99.90;;;;;;5033291;28;20420;-68
2021/07/17 03:48:36;;;;;;;23.30;12.80;;;17.80;99.90;;;;;;5033272;28;20422;-68
2021/07/17 03:51:02;;;;;;;26.90;14.87;;;17.70;99.90;;;;;;5033276;28;20158;-68
2021/07/17 03:53:28;;;;;;;20.83;13.00;;;17.70;99.90;;;;;;5033308;28;20169;-68
2021/07/17 03:55:54;;;;;;;19.87;13.57;;;17.80;99.90;;;;;;5033176;28;20181;-68
2021/07/17 03:58:19;;;;;;;19.40;13.03;;;17.80;99.90;;;;;;5034197;28;20761;-68
2021/07/17 04:00:45;;;;;;;22.17;12.73;;;17.80;99.90;;;;;;5032936;28;20540;-68
2021/07/17 04:03:11;;;;;;;22.43;12.50;;;17.80;99.90;;;;;;5033191;28;20214;-68
2021/07/17 04:05:36;;;;;;;18.03;11.90;;;17.80;99.90;;;;;;5033022;28;20181;-68
2021/07/17 04:08:02;;;;;;;21.50;13.47;;;17.80;99.90;;;;;;5033122;28;20207;-68
2021/07/17 04:10:28;;;;;;;25.73;14.43;;;17.70;99.90;;;;;;5032920;28;20161;-68
2021/07/17 04:12:53;;;;;;;27.63;15.37;;;17.70;99.90;;;;;;5033003;28;20161;-68
2021/07/17 04:15:19;;;;;;;23.10;15.40;;;17.70;99.90;;;;;;5033838;28;20182;-68
2021/07/17 04:17:45;;;;;;;22.37;13.73;;;17.70;99.90;;;;;;5032848;28;20560;-68
2021/07/17 04:20:11;;;;;;;22.20;14.93;;;17.70;99.90;;;;;;5032939;28;20193;-68
2021/07/17 04:22:36;;;;;;;33.80;16.70;;;17.70;99.90;;;;;;5033162;28;20161;-68
2021/07/17 04:25:04;;;;;;;26.17;17.50;;;17.70;99.90;;;;;;5032574;28;20453;-68
2021/07/17 04:27:30;;;;;;;21.30;16.33;;;17.70;99.90;;;;;;5032602;28;20241;-68
2021/07/17 04:29:55;;;;;;;30.23;17.70;;;17.70;99.90;;;;;;5032618;28;20436;-68
2021/07/17 04:32:21;;;;;;;24.73;17.70;;;17.70;99.90;;;;;;5044385;28;20706;-68
2021/07/17 04:34:46;;;;;;;26.70;16.83;;;17.70;99.90;;;;;;5032644;28;20235;-68
2021/07/17 04:37:15;;;;;;;23.40;14.67;;;17.70;99.90;;;;;;5032881;28;20163;-68
2021/07/17 04:39:41;;;;;;;20.90;15.10;;;17.70;99.90;;;;;;5032894;28;20184;-68
2021/07/17 04:42:07;;;;;;;21.50;13.60;;;17.70;99.90;;;;;;5032619;28;20484;-68
2021/07/17 04:44:32;;;;;;;24.43;15.40;;;17.70;99.90;;;;;;5032559;28;20466;-68
2021/07/17 04:46:58;;;;;;;22.23;14.07;;;17.70;99.90;;;;;;5032805;28;20615;-68
2021/07/17 04:49:23;;;;;;;17.63;13.40;;;17.70;99.90;;;;;;5033648;28;20257;-68
2021/07/17 04:51:49;;;;;;;28.23;16.70;;;17.70;99.90;;;;;;5032935;28;20153;-68
2021/07/17 04:54:15;;;;;;;25.23;15.70;;;17.70;99.90;;;;;;5032532;28;20201;-68
2021/07/17 04:56:40;;;;;;;18.63;14.50;;;17.70;99.90;;;;;;5032618;28;20185;-68
2021/07/17 04:59:06;;;;;;;16.53;14.73;;;17.70;99.90;;;;;;5036363;28;20430;-68
2021/07/17 05:01:31;;;;;;;23.90;14.47;;;17.70;99.90;;;;;;5051434;28;20249;-68
2021/07/17 05:03:57;;;;;;;25.30;15.27;;;17.70;99.90;;;;;;5052285;28;20246;-68
2021/07/17 05:06:22;;;;;;;28.63;13.93;;;17.70;99.90;;;;;;5046939;28;20173;-68
2021/07/17 05:08:48;;;;;;;18.30;14.90;;;17.70;99.90;;;;;;5032333;28;20157;-68
2021/07/17 05:11:13;;;;;;;26.80;15.80;;;17.70;99.90;;;;;;5032367;28;20157;-68
2021/07/17 05:13:39;;;;;;;18.03;14.17;;;17.80;99.90;;;;;;5032160;28;20172;-68
2021/07/17 05:16:04;;;;;;;18.63;15.73;;;17.80;99.90;;;;;;5032429;28;20231;-68
2021/07/17 05:18:32;;;;;;;28.40;16.10;;;17.80;99.90;;;;;;5032359;28;20167;-68
2021/07/17 05:20:58;;;;;;;22.70;16.30;;;17.80;99.90;;;;;;5032754;28;20189;-68
2021/07/17 05:23:24;;;;;;;18.53;13.33;;;17.80;99.90;;;;;;5033251;28;20928;-68
2021/07/17 05:25:51;;;;;;;21.03;14.30;;;17.80;99.90;;;;;;5050530;28;20209;-68
2021/07/17 05:28:17;;;;;;;20.30;14.30;;;17.80;99.90;;;;;;5056061;28;20834;-68
2021/07/17 05:30:43;;;;;;;15.17;12.87;;;17.90;99.90;;;;;;5055932;28;20884;-68
2021/07/17 05:33:10;;;;;;;19.73;13.90;;;17.90;99.90;;;;;;5040921;28;20431;-68
2021/07/17 05:35:35;;;;;;;25.17;13.37;;;17.90;99.90;;;;;;5036227;28;20161;-68
2021/07/17 05:38:02;;;;;;;16.30;12.93;;;18.00;99.90;;;;;;5035944;28;20403;-68
2021/07/17 05:40:27;;;;;;;18.70;14.23;;;18.10;99.90;;;;;;5041366;28;20233;-68
2021/07/17 05:42:53;;;;;;;19.07;13.43;;;18.10;99.90;;;;;;5055905;28;20391;-68
2021/07/17 05:45:19;;;;;;;19.90;13.40;;;18.10;99.90;;;;;;5055489;28;20203;-68
2021/07/17 05:47:44;;;;;;;22.37;14.00;;;18.10;99.90;;;;;;5055815;28;20254;-68
2021/07/17 05:50:10;;;;;;;20.60;13.90;;;18.20;99.90;;;;;;5056027;28;20156;-68
2021/07/17 05:52:36;;;;;;;18.40;14.13;;;18.20;99.90;;;;;;5055552;28;20239;-68
2021/07/17 05:55:03;;;;;;;19.27;14.30;;;18.30;99.90;;;;;;5055516;28;20433;-68
2021/07/17 05:57:28;;;;;;;24.57;14.67;;;18.30;99.90;;;;;;5045348;28;20263;-68
2021/07/17 05:59:54;;;;;;;19.10;13.60;;;18.30;99.90;;;;;;5044758;28;20868;-68
2021/07/17 06:02:19;;;;;;;21.23;14.00;;;18.30;99.90;;;;;;5035752;28;20196;-68
2021/07/17 06:04:45;;;;;;;17.60;14.23;;;18.30;99.90;;;;;;5035753;28;20251;-68
2021/07/17 06:07:11;;;;;;;19.80;16.90;;;18.30;99.90;;;;;;5035406;28;20156;-68
2021/07/17 06:09:37;;;;;;;21.80;14.90;;;18.30;99.90;;;;;;5035505;28;20157;-68
2021/07/17 06:12:03;;;;;;;22.40;17.40;;;18.20;99.90;;;;;;5035355;28;20395;-68
2021/07/17 06:14:29;;;;;;;23.90;20.20;;;18.20;99.90;;;;;;5036422;28;20454;-68
2021/07/17 06:16:54;;;;;;;23.73;17.57;;;18.20;99.90;;;;;;5035156;28;20399;-68
2021/07/17 06:19:20;;;;;;;26.70;19.23;;;18.20;99.90;;;;;;5035188;28;20267;-68
2021/07/17 06:21:45;;;;;;;30.97;19.83;;;18.20;99.90;;;;;;5035132;28;20163;-68
2021/07/17 06:24:11;;;;;;;20.90;17.10;;;18.20;99.90;;;;;;5034865;28;20228;-68
2021/07/17 06:26:36;;;;;;;20.47;16.53;;;18.30;99.90;;;;;;5042729;28;20184;-68
2021/07/17 06:29:02;;;;;;;26.93;17.47;;;18.30;99.90;;;;;;5055437;28;20168;-68
2021/07/17 06:31:28;;;;;;;22.07;15.20;;;18.30;99.90;;;;;;5048644;28;20169;-68
2021/07/17 06:33:53;;;;;;;17.83;14.37;;;18.40;99.90;;;;;;5035208;28;20239;-68
2021/07/17 06:36:19;;;;;;;22.53;15.10;;;18.40;99.90;;;;;;5034905;28;20169;-68
2021/07/17 06:38:48;;;;;;;25.77;15.23;;;18.40;99.90;;;;;;5034642;28;20157;-68
2021/07/17 06:41:13;;;;;;;25.67;14.77;;;18.40;99.90;;;;;;5034817;28;20554;-68
2021/07/17 06:43:39;;;;;;;21.00;15.53;;;18.40;99.90;;;;;;5034588;28;20423;-68
2021/07/17 06:46:05;;;;;;;20.33;14.50;;;18.40;99.90;;;;;;5034767;28;20254;-68
2021/07/17 06:48:31;;;;;;;28.57;15.47;;;18.30;99.90;;;;;;5035874;28;20641;-68
2021/07/17 06:50:57;;;;;;;20.13;14.00;;;18.30;99.90;;;;;;5034706;28;20391;-68
2021/07/17 06:53:22;;;;;;;18.73;13.27;;;18.30;99.90;;;;;;5034560;28;20431;-69
2021/07/17 06:55:48;;;;;;;24.63;15.00;;;18.30;99.90;;;;;;5034751;28;20638;-68
2021/07/17 06:58:14;;;;;;;23.80;13.77;;;18.30;99.90;;;;;;5034234;28;20529;-68
2021/07/17 07:00:39;;;;;;;22.57;14.03;;;18.30;99.90;;;;;;5051364;28;20594;-68
2021/07/17 07:03:05;;;;;;;21.50;15.40;;;18.30;99.90;;;;;;5054521;28;20168;-68
2021/07/17 07:05:31;;;;;;;21.90;13.23;;;18.30;99.90;;;;;;5047184;28;20246;-68
2021/07/17 07:07:57;;;;;;;22.10;14.27;;;18.30;99.90;;;;;;5034330;28;20326;-68
2021/07/17 07:10:22;;;;;;;20.40;12.23;;;18.30;99.90;;;;;;5034315;28;20391;-68
2021/07/17 07:12:49;;;;;;;18.83;13.40;;;18.40;99.90;;;;;;5034266;28;20244;-68
2021/07/17 07:15:15;;;;;;;19.60;14.50;;;18.40;99.90;;;;;;5034231;28;20168;-68
2021/07/17 07:17:41;;;;;;;18.10;15.03;;;18.50;99.90;;;;;;5034159;28;20403;-68
2021/07/17 07:20:11;;;;;;;16.97;13.23;;;18.50;99.90;;;;;;5033919;28;20911;-68
2021/07/17 07:22:37;;;;;;;25.00;15.23;;;18.50;99.90;;;;;;5035161;28;20263;-68
2021/07/17 07:25:05;;;;;;;16.10;13.63;;;18.60;99.90;;;;;;5033696;28;20510;-68
2021/07/17 07:27:31;;;;;;;16.43;11.87;;;18.60;99.90;;;;;;5051106;28;20915;-68
2021/07/17 07:29:56;;;;;;;19.07;12.70;;;18.60;99.90;;;;;;5053834;28;20509;-68
2021/07/17 07:32:22;;;;;;;16.60;12.97;;;18.70;99.90;;;;;;5054111;28;20204;-68
2021/07/17 07:34:47;;;;;;;18.40;12.93;;;18.70;99.90;;;;;;5053200;28;20533;-68
2021/07/17 07:37:13;;;;;;;18.90;14.50;;;18.80;99.90;;;;;;5053601;28;20160;-68
2021/07/17 07:39:38;;;;;;;19.40;14.47;;;18.80;99.90;;;;;;5045794;28;20219;-68
2021/07/17 07:42:04;;;;;;;25.50;16.70;;;18.80;99.90;;;;;;5033602;28;20152;-68
2021/07/17 07:44:31;;;;;;;23.40;14.97;;;18.90;99.90;;;;;;5033395;28;20665;-68
2021/07/17 07:46:56;;;;;;;20.40;14.20;;;18.90;99.90;;;;;;5033683;28;20558;-68
2021/07/17 07:49:25;;;;;;;18.03;12.90;;;18.90;99.90;;;;;;5033008;28;20396;-68
2021/07/17 07:51:50;;;;;;;20.63;13.40;;;18.90;99.90;;;;;;5033636;28;20566;-68
2021/07/17 07:54:16;;;;;;;22.00;12.90;;;18.90;99.90;;;;;;5033366;28;20401;-68
2021/07/17 07:56:42;;;;;;;17.37;13.57;;;18.90;99.90;;;;;;5040861;28;20222;-68
2021/07/17 07:59:11;;;;;;;16.90;13.97;;;18.90;99.90;;;;;;5053809;28;20195;-68
2021/07/17 08:01:36;;;;;;;17.20;14.00;;;18.90;99.90;;;;;;5053456;28;20489;-68
2021/07/17 08:04:02;;;;;;;21.20;15.40;;;19.00;99.90;;;;;;5053333;28;20398;-68
2021/07/17 08:06:28;;;;;;;26.30;16.17;;;19.00;99.90;;;;;;5053036;28;20170;-68
2021/07/17 08:08:53;;;;;;;23.17;15.90;;;19.00;99.90;;;;;;5053085;28;20201;-68
2021/07/17 08:11:19;;;;;;;18.40;16.40;;;19.10;99.90;;;;;;5053090;28;20163;-68
2021/07/17 08:13:44;;;;;;;25.20;17.80;;;19.10;99.90;;;;;;5051686;28;20171;-68
2021/07/17 08:16:10;;;;;;;22.10;15.70;;;19.10;99.90;;;;;;5053401;28;20530;-68
2021/07/17 08:18:36;;;;;;;24.60;17.00;;;19.10;99.90;;;;;;5053113;28;20248;-68
2021/07/17 08:21:02;;;;;;;18.77;14.30;;;19.10;99.90;;;;;;5052720;28;20162;-68
2021/07/17 08:23:28;;;;;;;31.33;17.97;;;19.10;99.90;;;;;;5052801;28;20424;-68
2021/07/17 08:25:53;;;;;;;15.30;13.63;;;19.20;99.90;;;;;;5045931;28;20932;-68
2021/07/17 08:28:19;;;;;;;24.70;13.07;;;19.20;99.90;;;;;;5033089;28;20160;-68
2021/07/17 08:30:45;;;;;;;22.17;11.83;;;19.30;99.90;;;;;;5041536;28;20560;-68
2021/07/17 08:33:10;;;;;;;18.43;12.80;;;19.40;99.90;;;;;;5052592;28;20190;-68
2021/07/17 08:35:36;;;;;;;16.83;10.93;;;19.40;99.90;;;;;;5052617;28;20156;-68
2021/07/17 08:38:02;;;;;;;23.77;12.47;;;19.40;99.90;;;;;;5052591;28;20152;-68
2021/07/17 08:40:28;;;;;;;16.17;10.80;;;19.40;99.90;;;;;;5052569;28;20199;-68
2021/07/17 08:42:55;;;;;;;18.90;10.83;;;19.50;99.90;;;;;;5053088;28;20494;-68
2021/07/17 08:45:22;;;;;;;21.07;11.23;;;19.50;99.90;;;;;;5052167;28;20473;-68
2021/07/17 08:47:50;;;;;;;20.53;11.20;;;19.60;99.90;;;;;;5050774;28;20468;-68
2021/07/17 08:50:18;;;;;;;16.10;10.90;;;19.70;99.90;;;;;;5052715;28;20403;-68
2021/07/17 08:52:44;;;;;;;19.27;11.53;;;19.70;99.90;;;;;;5052514;28;20441;-68
2021/07/17 08:55:11;;;;;;;17.63;9.53;;;19.70;99.90;;;;;;5051908;28;20481;-68
2021/07/17 08:57:39;;;;;;;13.40;10.70;;;19.80;99.90;;;;;;5032857;28;20407;-68
2021/07/17 09:00:11;;;;;;;18.30;10.20;;;19.80;99.90;;;;;;5044568;28;20434;-68
2021/07/17 09:02:39;;;;;;;13.30;9.97;;;19.90;99.90;;;;;;5055702;28;20416;-68
2021/07/17 09:05:07;;;;;;;11.90;10.23;;;19.90;99.90;;;;;;5044919;28;20454;-68
2021/07/17 09:07:33;;;;;;;13.30;9.80;;;20.00;99.90;;;;;;5036477;28;20482;-68
2021/07/17 09:09:58;;;;;;;11.13;9.23;;;20.00;99.90;;;;;;5036728;28;20427;-68
2021/07/17 09:12:26;;;;;;;14.50;10.87;;;20.00;99.90;;;;;;5036826;28;20227;-68
2021/07/17 09:14:53;;;;;;;15.27;9.70;;;20.10;99.90;;;;;;5036413;28;20248;-68
2021/07/17 09:17:27;;;;;;;12.00;9.00;;;20.10;99.90;;;;;;5036183;28;20392;-68
2021/07/17 09:19:59;;;;;;;15.83;8.90;;;20.30;99.90;;;;;;5036271;28;20771;-68
2021/07/17 09:22:34;;;;;;;15.57;9.33;;;20.40;99.90;;;;;;5043089;28;20824;-68
2021/07/17 09:25:09;;;;;;;17.77;8.90;;;20.40;99.90;;;;;;5037539;28;20545;-68
2021/07/17 09:27:35;;;;;;;16.67;9.97;;;20.50;99.90;;;;;;5056488;28;21013;-69
2021/07/17 09:30:00;;;;;;;10.50;8.33;;;20.60;99.90;;;;;;5056085;28;20423;-68
2021/07/17 09:32:26;;;;;;;14.07;8.67;;;20.70;99.90;;;;;;5055793;28;20207;-68
2021/07/17 09:34:51;;;;;;;17.23;9.33;;;20.70;99.90;;;;;;5055885;28;20236;-68
2021/07/17 09:37:23;;;;;;;14.57;9.13;;;20.80;99.90;;;;;;5055981;28;20176;-68
2021/07/17 09:39:49;;;;;;;11.97;10.10;;;20.80;99.90;;;;;;5038529;28;20177;-68
2021/07/17 09:42:18;;;;;;;16.40;9.30;;;20.80;99.90;;;;;;5036126;28;20758;-68
2021/07/17 09:44:49;;;;;;;11.63;8.63;;;20.90;99.90;;;;;;5035677;28;20565;-69
2021/07/17 09:47:20;;;;;;;15.30;8.97;;;21.00;99.90;;;;;;5035796;28;20403;-68
2021/07/17 09:49:47;;;;;;;16.47;8.70;;;21.00;99.90;;;;;;5035658;28;20387;-68
2021/07/17 09:52:16;;;;;;;14.60;8.70;;;21.10;99.90;;;;;;5035703;28;20392;-68
2021/07/17 09:55:03;;;;;;;10.90;8.60;;;21.20;99.90;;;;;;5036378;28;20403;-68
2021/07/17 09:57:30;;;;;;;21.70;8.70;;;21.30;99.90;;;;;;5035543;28;20919;-68
2021/07/17 10:00:13;;;;;;;14.60;11.23;;;21.50;99.90;;;;;;5046439;28;20515;-68
2021/07/17 10:02:40;;;;;;;9.60;7.50;;;21.80;99.90;;;;;;5055282;28;20394;-69
2021/07/17 10:05:08;;;;;;;12.53;7.40;;;21.90;99.90;;;;;;5055416;28;20810;-69
2021/07/17 10:07:33;;;;;;;14.77;8.07;;;22.10;99.90;;;;;;5055557;28;20481;-68
2021/07/17 10:09:59;;;;;;;9.80;7.43;;;22.40;99.90;;;;;;5055587;28;20510;-68
2021/07/17 10:12:42;;;;;;;11.57;7.77;;;22.60;99.90;;;;;;5052765;28;20176;-68
2021/07/17 10:15:14;;;;;;;8.90;6.60;;;22.80;99.90;;;;;;5054963;28;20176;-68
2021/07/17 10:17:41;;;;;;;11.93;7.97;;;23.10;99.90;;;;;;5054987;28;20390;-68
2021/07/17 10:20:10;;;;;;;8.60;6.47;;;23.30;99.90;;;;;;5055347;28;20910;-68
2021/07/17 10:22:37;;;;;;;14.03;6.57;;;23.50;99.90;;;;;;5038292;28;20466;-68
2021/07/17 10:25:05;;;;;;;10.63;6.67;;;23.80;99.90;;;;;;5038748;28;20462;-68
2021/07/17 10:27:31;;;;;;;7.80;5.27;;;24.10;99.90;;;;;;5054928;28;20403;-68
2021/07/17 10:29:57;;;;;;;11.17;5.97;;;24.40;99.90;;;;;;5044671;28;20978;-68
2021/07/17 10:32:23;;;;;;;8.33;6.50;;;24.70;99.90;;;;;;5034981;28;20622;-68
2021/07/17 10:34:50;;;;;;;9.73;5.97;;;24.80;99.90;;;;;;5034722;28;20518;-68
2021/07/17 10:40:05;;;;;;;9.50;6.00;;;25.00;99.90;;;;;;5110744;27;20539;-69
2021/07/17 10:42:31;;;;;;;5.17;4.57;;;24.90;99.90;;;;;;5110250;28;20403;-68
2021/07/17 10:44:57;;;;;;;12.10;6.20;;;24.70;99.90;;;;;;5110411;28;20408;-69
2021/07/17 10:47:23;;;;;;;6.10;4.97;;;24.70;99.90;;;;;;5096727;28;20847;-68
2021/07/17 10:49:52;;;;;;;16.83;6.63;;;24.50;99.90;;;;;;5090134;28;20559;-68
2021/07/17 10:52:39;;;;;;;11.33;6.10;;;24.30;99.90;;;;;;5094901;28;20499;-67
2021/07/17 11:01:00;;;;;;;8.27;5.87;;;23.90;99.90;;;;;;5151838;27;21046;-69
2021/07/17 11:03:30;;;;;;;7.67;5.47;;;23.90;99.90;;;;;;5145391;27;20436;-69
2021/07/17 11:05:56;;;;;;;9.73;5.70;;;23.80;99.90;;;;;;5130930;28;20154;-69
2021/07/17 11:16:45;;;;;;;9.50;5.20;;;23.60;99.90;;;;;;5069926;28;20513;-68
2021/07/17 11:21:52;;;;;;;12.20;5.73;;;23.50;99.90;;;;;;5044352;28;21003;-69
2021/07/17 11:24:20;;;;;;;9.40;6.40;;;23.60;99.90;;;;;;5050058;28;20466;-69
2021/07/17 11:26:46;;;;;;;9.77;5.70;;;23.60;99.90;;;;;;5049847;28;20478;-69
2021/07/17 11:29:13;;;;;;;7.83;5.30;;;23.60;99.90;;;;;;5049941;28;20902;-69
2021/07/17 11:31:45;;;;;;;10.97;4.67;;;23.60;99.90;;;;;;5049792;28;20430;-69
2021/07/17 11:36:52;;;;;;;5.80;4.93;;;23.60;99.90;;;;;;5025666;28;20537;-67
2021/07/17 11:39:20;;;;;;;5.17;4.00;;;23.40;99.90;;;;;;5006852;28;20416;-67
2021/07/17 11:41:46;;;;;;;6.40;3.90;;;23.30;99.90;;;;;;5006948;28;20402;-67
2021/07/17 11:44:12;;;;;;;7.10;4.20;;;23.20;99.90;;;;;;5006889;28;20388;-67
2021/07/17 11:46:52;;;;;;;5.93;3.97;;;23.10;99.90;;;;;;5006647;28;20445;-67
2021/07/17 11:49:18;;;;;;;7.60;4.53;;;23.10;99.90;;;;;;5006683;28;20550;-67
2021/07/17 11:51:50;;;;;;;7.43;3.60;;;23.00;99.90;;;;;;5007213;28;20393;-67
2021/07/17 11:54:37;;;;;;;4.03;3.60;;;23.00;99.90;;;;;;5005853;28;20268;-67
2021/07/17 11:59:47;;;;;;;8.00;4.70;;;22.90;99.90;;;;;;5069941;28;20520;-68
2021/07/17 12:02:16;;;;;;;7.77;3.90;;;22.90;99.90;;;;;;5070023;28;20378;-68
2021/07/17 12:04:48;;;;;;;7.43;3.80;;;22.90;99.90;;;;;;5070096;28;20405;-68
2021/07/17 12:07:20;;;;;;;7.60;3.93;;;22.90;99.90;;;;;;5069923;28;20868;-68
2021/07/17 12:09:48;;;;;;;7.63;4.20;;;22.80;99.90;;;;;;5069679;28;20439;-68
2021/07/17 12:12:20;;;;;;;4.37;3.93;;;22.80;99.90;;;;;;5057142;28;20446;-68
2021/07/17 12:14:55;;;;;;;7.20;3.50;;;22.80;99.90;;;;;;5049676;28;20415;-68
2021/07/17 12:17:24;;;;;;;3.63;3.13;;;22.80;99.90;;;;;;5049633;28;20447;-68
2021/07/17 12:23:00;;;;;;;6.20;3.43;;;22.70;99.90;;;;;;5070131;28;20622;-68
2021/07/17 12:25:29;;;;;;;6.73;3.70;;;22.70;99.90;;;;;;5069990;28;20410;-68
2021/07/17 12:27:59;;;;;;;4.50;2.70;;;22.70;99.90;;;;;;5065128;28;20403;-69
2021/07/17 12:30:27;;;;;;;6.67;4.13;;;22.70;99.90;;;;;;5030054;28;20819;-69
2021/07/17 12:33:09;;;;;;;8.73;3.20;;;22.70;99.90;;;;;;5030267;28;20396;-69
2021/07/17 12:35:34;;;;;;;7.37;3.67;;;22.70;99.90;;;;;;5030081;28;20380;-69
2021/07/17 12:38:13;;;;;;;7.57;3.80;;;22.70;99.90;;;;;;5029875;28;20446;-68
2021/07/17 12:40:48;;;;;;;6.13;3.30;;;22.70;99.90;;;;;;5029742;28;20192;-69
2021/07/17 12:43:21;;;;;;;6.00;3.37;;;22.70;99.90;;;;;;5029799;28;20392;-69
2021/07/17 12:45:56;;;;;;;4.03;3.00;;;22.60;99.90;;;;;;5030853;28;20404;-69
2021/07/17 12:48:22;;;;;;;7.47;3.40;;;22.60;99.90;;;;;;5029927;28;20415;-69
2021/07/17 12:50:47;;;;;;;3.40;2.73;;;22.60;99.90;;;;;;5029684;28;20443;-69
2021/07/17 12:53:14;;;;;;;5.73;3.20;;;22.60;99.90;;;;;;5060013;28;20205;-69
2021/07/17 12:55:42;;;;;;;4.37;3.00;;;22.60;99.90;;;;;;5052245;28;20293;-69
2021/07/17 12:58:10;;;;;;;9.07;3.73;;;22.60;99.90;;;;;;5049315;28;20403;-69